Senyomaru — JI3557 — position and weather

sailwx.info

Track history (hours):
 
Tides and Currents Weather Stations Pressure Air Temp Water Temp Dewpoint Dewpoint Depression Visibility Wind Speed Wind Dir Waves Ship Positions

Senyomaru

Last reported at 2016-Jul-14 07:14 UTC. Time now 2016-Jul-24 02:58 UTC.
Position N 34°35' E 134°51'.
Warning: this ship's position is 9 days out of date.

Length 69 m; draft 4 m.

Type: Tanker. MMSI: 431300188.

Date/timePositionNaut miles runAvg speedWind from/ knotsBaromVisibWave heightAir tempDewpointWater temp
2016-Jul-14 07:14N 34°35' E 134°51'913.0
2016-Jul-14 06:33N 34°37' E 135°02'1212.2
2016-Jul-14 05:33N 34°34' E 135°17'8 7.5
2016-Jul-14 04:33N 34°33' E 135°26'0 0.0
2016-Jul-14 03:33N 34°33' E 135°26'0 0.0
2016-Jul-14 02:33N 34°33' E 135°26'0 0.0
2016-Jul-14 01:33N 34°33' E 135°26'0 0.0
2016-Jul-14 00:33N 34°33' E 135°26'0 0.0
2016-Jul-13 23:33N 34°33' E 135°26'0 0.0
2016-Jul-13 22:33N 34°33' E 135°26'2 2.2
2016-Jul-13 21:30N 34°34' E 135°23'0 0.0
2016-Jul-13 20:12N 34°34' E 135°23'0 0.1
2016-Jul-13 19:30N 34°34' E 135°23'0 0.0
2016-Jul-13 18:30N 34°34' E 135°23'0 0.0
2016-Jul-13 17:12N 34°34' E 135°23'0 0.0
2016-Jul-13 10:30N 34°34' E 135°23'0 0.0
2016-Jul-13 09:12N 34°34' E 135°23'0 0.0
2016-Jul-13 07:30N 34°34' E 135°23'0 0.0
2016-Jul-13 06:12N 34°34' E 135°23'0 0.0
2016-Jul-13 05:30N 34°34' E 135°23'0 0.0
2016-Jul-13 04:24N 34°34' E 135°23'0 0.0
2016-Jul-13 01:24N 34°34' E 135°23'0 0.0
2016-Jul-13 00:30N 34°34' E 135°23'0 0.0
2016-Jul-12 22:30N 34°34' E 135°23'0 0.0
2016-Jul-12 20:24N 34°34' E 135°23'3 3.1
2016-Jul-12 19:33N 34°34' E 135°20'1212.4
2016-Jul-12 18:33N 34°35' E 135°05'8 0.2
2016-Jul-11 07:33N 34°36' E 134°56'1111.1
2016-Jul-11 06:33N 34°35' E 135°09'14 6.8
2016-Jul-11 04:33N 34°33' E 135°26'0 0.0
2016-Jul-11 03:33N 34°33' E 135°26'0 0.0
2016-Jul-11 02:32N 34°33' E 135°26'0 0.0
2016-Jul-11 01:32N 34°33' E 135°26'0 0.0
2016-Jul-11 00:33N 34°33' E 135°26'2 2.2
2016-Jul-10 23:33N 34°34' E 135°23'0 0.1
2016-Jul-10 20:09N 34°34' E 135°23'0 0.0
2016-Jul-10 19:33N 34°34' E 135°23'0 0.0
2016-Jul-10 18:15N 34°34' E 135°23'0 0.0
2016-Jul-10 17:27N 34°34' E 135°23'0 0.0
2016-Jul-10 16:33N 34°34' E 135°23'0 0.0
2016-Jul-10 15:33N 34°34' E 135°23'0 0.0
2016-Jul-10 14:33N 34°34' E 135°23'0 0.0
2016-Jul-10 11:33N 34°34' E 135°23'0 0.0
2016-Jul-10 07:21N 34°34' E 135°23'0 0.0
2016-Jul-10 06:33N 34°34' E 135°23'0 0.0
2016-Jul-10 05:21N 34°34' E 135°23'0 0.0
2016-Jul-10 01:33N 34°34' E 135°23'0 0.0
2016-Jul-10 00:33N 34°34' E 135°23'0 0.0
2016-Jul-09 21:33N 34°34' E 135°23'1111.5
2016-Jul-09 20:33N 34°35' E 135°09'14 0.4
2016-Jul-08 10:20N 34°35' E 134°52'810.5
2016-Jul-08 09:32N 34°37' E 135°02'1010.5
2016-Jul-08 08:33N 34°35' E 135°14'9 9.4
2016-Jul-08 07:33N 34°33' E 135°26'0 0.0
2016-Jul-08 06:32N 34°33' E 135°26'0 0.0
2016-Jul-08 04:33N 34°33' E 135°26'0 0.0
2016-Jul-08 03:33N 34°33' E 135°26'0 0.0
2016-Jul-08 02:33N 34°33' E 135°26'0 0.0
2016-Jul-08 01:20N 34°33' E 135°26'0 0.0
2016-Jul-08 00:30N 34°33' E 135°26'1 1.1
2016-Jul-07 23:33N 34°33' E 135°24'1 0.4
2016-Jul-07 20:31N 34°34' E 135°23'0 0.0
2016-Jul-07 19:31N 34°34' E 135°23'0 0.0
2016-Jul-07 16:19N 34°34' E 135°23'0 0.0
2016-Jul-07 15:25N 34°34' E 135°23'0 0.0
2016-Jul-07 14:19N 34°34' E 135°23'0 0.0
2016-Jul-07 12:07N 34°34' E 135°23'0 0.0
2016-Jul-07 11:07N 34°34' E 135°23'0 0.0
2016-Jul-07 10:31N 34°34' E 135°23'0 0.0
2016-Jul-07 08:31N 34°34' E 135°23'4 4.2
2016-Jul-07 07:33N 34°34' E 135°18'1413.7
2016-Jul-07 06:33N 34°37' E 135°02'  
Track history (hours):
 
Tides and Currents Weather Stations Pressure Air Temp Water Temp Dewpoint Dewpoint Depression Visibility Wind Speed Wind Dir Waves Ship Positions

Senyomaru

Last reported at 2016-Jul-14 07:14 UTC. Time now 2016-Jul-24 02:58 UTC.
Position N 34°35' E 134°51'.
Warning: this ship's position is 9 days out of date.

Length 69 m; draft 4 m.

Type: Tanker. MMSI: 431300188.

Date/timePositionNaut miles runAvg speedWind from/ knotsBaromVisibWave heightAir tempDewpointWater temp
2016-Jul-14 07:14N 34°35' E 134°51'913.0
2016-Jul-14 06:33N 34°37' E 135°02'1212.2
2016-Jul-14 05:33N 34°34' E 135°17'8 7.5
2016-Jul-14 04:33N 34°33' E 135°26'0 0.0
2016-Jul-14 03:33N 34°33' E 135°26'0 0.0
2016-Jul-14 02:33N 34°33' E 135°26'0 0.0
2016-Jul-14 01:33N 34°33' E 135°26'0 0.0
2016-Jul-14 00:33N 34°33' E 135°26'0 0.0
2016-Jul-13 23:33N 34°33' E 135°26'0 0.0
2016-Jul-13 22:33N 34°33' E 135°26'2 2.2
2016-Jul-13 21:30N 34°34' E 135°23'0 0.0
2016-Jul-13 20:12N 34°34' E 135°23'0 0.1
2016-Jul-13 19:30N 34°34' E 135°23'0 0.0
2016-Jul-13 18:30N 34°34' E 135°23'0 0.0
2016-Jul-13 17:12N 34°34' E 135°23'0 0.0
2016-Jul-13 10:30N 34°34' E 135°23'0 0.0
2016-Jul-13 09:12N 34°34' E 135°23'0 0.0
2016-Jul-13 07:30N 34°34' E 135°23'0 0.0
2016-Jul-13 06:12N 34°34' E 135°23'0 0.0
2016-Jul-13 05:30N 34°34' E 135°23'0 0.0
2016-Jul-13 04:24N 34°34' E 135°23'0 0.0
2016-Jul-13 01:24N 34°34' E 135°23'0 0.0
2016-Jul-13 00:30N 34°34' E 135°23'0 0.0
2016-Jul-12 22:30N 34°34' E 135°23'0 0.0
2016-Jul-12 20:24N 34°34' E 135°23'3 3.1
2016-Jul-12 19:33N 34°34' E 135°20'1212.4
2016-Jul-12 18:33N 34°35' E 135°05'8 0.2
2016-Jul-11 07:33N 34°36' E 134°56'1111.1
2016-Jul-11 06:33N 34°35' E 135°09'14 6.8
2016-Jul-11 04:33N 34°33' E 135°26'0 0.0
2016-Jul-11 03:33N 34°33' E 135°26'0 0.0
2016-Jul-11 02:32N 34°33' E 135°26'0 0.0
2016-Jul-11 01:32N 34°33' E 135°26'0 0.0
2016-Jul-11 00:33N 34°33' E 135°26'2 2.2
2016-Jul-10 23:33N 34°34' E 135°23'0 0.1
2016-Jul-10 20:09N 34°34' E 135°23'0 0.0
2016-Jul-10 19:33N 34°34' E 135°23'0 0.0
2016-Jul-10 18:15N 34°34' E 135°23'0 0.0
2016-Jul-10 17:27N 34°34' E 135°23'0 0.0
2016-Jul-10 16:33N 34°34' E 135°23'0 0.0
2016-Jul-10 15:33N 34°34' E 135°23'0 0.0
2016-Jul-10 14:33N 34°34' E 135°23'0 0.0
2016-Jul-10 11:33N 34°34' E 135°23'0 0.0
2016-Jul-10 07:21N 34°34' E 135°23'0 0.0
2016-Jul-10 06:33N 34°34' E 135°23'0 0.0
2016-Jul-10 05:21N 34°34' E 135°23'0 0.0
2016-Jul-10 01:33N 34°34' E 135°23'0 0.0
2016-Jul-10 00:33N 34°34' E 135°23'0 0.0
2016-Jul-09 21:33N 34°34' E 135°23'1111.5
2016-Jul-09 20:33N 34°35' E 135°09'14 0.4
2016-Jul-08 10:20N 34°35' E 134°52'810.5
2016-Jul-08 09:32N 34°37' E 135°02'1010.5
2016-Jul-08 08:33N 34°35' E 135°14'9 9.4
2016-Jul-08 07:33N 34°33' E 135°26'0 0.0
2016-Jul-08 06:32N 34°33' E 135°26'0 0.0
2016-Jul-08 04:33N 34°33' E 135°26'0 0.0
2016-Jul-08 03:33N 34°33' E 135°26'0 0.0
2016-Jul-08 02:33N 34°33' E 135°26'0 0.0
2016-Jul-08 01:20N 34°33' E 135°26'0 0.0
2016-Jul-08 00:30N 34°33' E 135°26'1 1.1
2016-Jul-07 23:33N 34°33' E 135°24'1 0.4
2016-Jul-07 20:31N 34°34' E 135°23'0 0.0
2016-Jul-07 19:31N 34°34' E 135°23'0 0.0
2016-Jul-07 16:19N 34°34' E 135°23'0 0.0
2016-Jul-07 15:25N 34°34' E 135°23'0 0.0
2016-Jul-07 14:19N 34°34' E 135°23'0 0.0
2016-Jul-07 12:07N 34°34' E 135°23'0 0.0
2016-Jul-07 11:07N 34°34' E 135°23'0 0.0
2016-Jul-07 10:31N 34°34' E 135°23'0 0.0
2016-Jul-07 08:31N 34°34' E 135°23'4 4.2
2016-Jul-07 07:33N 34°34' E 135°18'1413.7
2016-Jul-07 06:33N 34°37' E 135°02'  

Dump ship's entire track history